Time;durP1;ratioP1;P1;durP2;ratioP2;P2;SDS_P1;SDS_P2;PMS_P1;PMS_P2;Temp;Humidity;BMP_temperature;BMP_pressure;BME280_temperature;BME280_humidity;BME280_pressure;Samples;Min_cycle;Max_cycle;Signal;HPM_P1;HPM_P2
2021/08/18 00:01:51;;;;;;;13.30;9.77;;;15.10;99.90;;;;;;5071683;28;20120;-73
2021/08/18 00:04:16;;;;;;;17.50;10.50;;;15.00;99.90;;;;;;5073235;28;20548;-73
2021/08/18 00:06:42;;;;;;;15.10;10.55;;;15.00;99.90;;;;;;5061512;28;20160;-74
2021/08/18 00:09:07;;;;;;;14.18;10.25;;;15.00;99.90;;;;;;5070181;28;20024;-73
2021/08/18 00:11:33;;;;;;;18.63;11.32;;;15.00;99.90;;;;;;5072979;28;20472;-75
2021/08/18 00:13:58;;;;;;;15.32;10.82;;;15.00;99.90;;;;;;5072963;28;20029;-74
2021/08/18 00:16:25;;;;;;;14.30;10.40;;;15.00;99.90;;;;;;5072707;28;20070;-73
2021/08/18 00:18:52;;;;;;;15.25;10.65;;;15.10;99.90;;;;;;5071267;28;20031;-73
2021/08/18 00:21:22;;;;;;;16.23;10.50;;;15.10;99.90;;;;;;5071624;28;20066;-72
2021/08/18 00:23:48;;;;;;;17.92;10.75;;;15.20;99.90;;;;;;5072767;28;20119;-73
2021/08/18 00:26:15;;;;;;;18.73;10.40;;;15.10;99.90;;;;;;5072988;28;20063;-73
2021/08/18 00:28:41;;;;;;;16.75;10.30;;;15.00;99.90;;;;;;5072596;28;20024;-72
2021/08/18 00:31:07;;;;;;;14.48;10.23;;;15.00;99.90;;;;;;5072278;28;20032;-73
2021/08/18 00:33:32;;;;;;;13.95;10.57;;;15.00;99.90;;;;;;5071228;28;20021;-73
2021/08/18 00:35:58;;;;;;;16.50;10.80;;;15.00;99.90;;;;;;5072331;28;20054;-74
2021/08/18 00:38:24;;;;;;;14.25;9.90;;;15.00;99.90;;;;;;5072480;28;20603;-75
2021/08/18 00:40:50;;;;;;;16.05;10.82;;;15.00;99.90;;;;;;5071049;28;20028;-72
2021/08/18 00:43:16;;;;;;;14.05;10.52;;;15.00;99.90;;;;;;5077546;28;20024;-73
2021/08/18 00:45:42;;;;;;;15.57;9.68;;;15.00;99.90;;;;;;5082522;28;20022;-73
2021/08/18 00:48:08;;;;;;;15.68;11.55;;;15.00;99.90;;;;;;5087926;28;20028;-73
2021/08/18 00:50:34;;;;;;;13.73;10.07;;;14.90;99.90;;;;;;5063060;28;20400;-73
2021/08/18 00:53:00;;;;;;;18.08;10.75;;;14.90;99.90;;;;;;5072366;28;20052;-74
2021/08/18 00:55:26;;;;;;;16.10;10.82;;;14.90;99.90;;;;;;5070700;28;20052;-74
2021/08/18 00:57:53;;;;;;;16.67;10.25;;;14.90;99.90;;;;;;5072166;28;20069;-72
2021/08/18 01:00:20;;;;;;;15.15;10.20;;;14.90;99.90;;;;;;5071925;28;20028;-74
2021/08/18 01:02:49;;;;;;;17.23;10.50;;;15.00;99.90;;;;;;5072135;28;20020;-73
2021/08/18 01:05:27;;;;;;;15.70;10.57;;;15.00;99.90;;;;;;5071808;28;20021;-73
2021/08/18 01:07:54;;;;;;;14.43;10.15;;;15.00;99.90;;;;;;5070458;28;20102;-75
2021/08/18 01:10:22;;;;;;;13.90;10.98;;;15.00;99.90;;;;;;5070578;28;20139;-73
2021/08/18 01:12:48;;;;;;;13.05;10.77;;;15.10;99.90;;;;;;5070608;28;20400;-73
2021/08/18 01:15:17;;;;;;;17.67;10.90;;;15.10;99.90;;;;;;5070483;28;20108;-74
2021/08/18 01:17:45;;;;;;;14.80;10.45;;;15.10;99.90;;;;;;5070558;28;20024;-74
2021/08/18 01:20:15;;;;;;;15.35;9.82;;;15.20;99.90;;;;;;5072208;28;20382;-73
2021/08/18 01:22:42;;;;;;;17.08;13.80;;;15.20;99.90;;;;;;5071702;28;20017;-73
2021/08/18 01:25:09;;;;;;;15.70;10.55;;;15.30;99.90;;;;;;5071204;28;20060;-73
2021/08/18 01:27:36;;;;;;;16.33;10.82;;;15.20;99.90;;;;;;5071730;28;20021;-73
2021/08/18 01:30:03;;;;;;;16.13;11.27;;;15.20;99.90;;;;;;5071840;28;20029;-73
2021/08/18 01:32:39;;;;;;;15.10;11.13;;;15.20;99.90;;;;;;5071962;28;20025;-73
2021/08/18 01:35:05;;;;;;;14.95;10.38;;;15.20;99.90;;;;;;5071816;28;20028;-73
2021/08/18 01:37:31;;;;;;;14.52;10.98;;;15.30;99.90;;;;;;5071607;28;20391;-72
2021/08/18 01:39:57;;;;;;;14.65;10.27;;;15.30;99.90;;;;;;5071695;28;20025;-73
2021/08/18 01:42:23;;;;;;;13.60;9.65;;;15.30;99.90;;;;;;5073866;28;20476;-72
2021/08/18 01:44:48;;;;;;;14.63;10.63;;;15.30;99.90;;;;;;5080070;28;20020;-73
2021/08/18 01:47:14;;;;;;;13.93;10.60;;;15.30;99.90;;;;;;5091750;28;20078;-73
2021/08/18 01:49:39;;;;;;;14.45;10.88;;;15.20;99.90;;;;;;5090661;28;20024;-74
2021/08/18 01:52:06;;;;;;;11.80;10.20;;;15.30;99.90;;;;;;5061928;28;20476;-73
2021/08/18 01:54:32;;;;;;;16.08;10.95;;;15.30;99.90;;;;;;5071368;28;20477;-74
2021/08/18 01:56:57;;;;;;;15.18;10.48;;;15.30;99.90;;;;;;5071670;28;20036;-73
2021/08/18 01:59:26;;;;;;;14.43;10.10;;;15.40;99.90;;;;;;5071296;28;20024;-73
2021/08/18 02:01:51;;;;;;;16.88;10.57;;;15.30;99.90;;;;;;5071562;28;20052;-74
2021/08/18 02:04:17;;;;;;;13.07;10.88;;;15.30;99.90;;;;;;5071555;28;20550;-73
2021/08/18 02:06:42;;;;;;;15.80;10.95;;;15.30;99.90;;;;;;5069973;28;20028;-72
2021/08/18 02:09:08;;;;;;;15.25;10.82;;;15.30;99.90;;;;;;5071480;28;20055;-74
2021/08/18 02:11:33;;;;;;;15.85;10.65;;;15.30;99.90;;;;;;5070276;28;20396;-73
2021/08/18 02:13:59;;;;;;;16.80;9.65;;;15.30;99.90;;;;;;5071595;28;20491;-73
2021/08/18 02:16:25;;;;;;;16.40;10.93;;;15.30;99.90;;;;;;5070196;28;20024;-73
2021/08/18 02:18:50;;;;;;;15.52;10.38;;;15.30;99.90;;;;;;5071318;28;20020;-73
2021/08/18 02:21:16;;;;;;;15.25;10.73;;;15.30;99.90;;;;;;5071339;28;20025;-72
2021/08/18 02:23:41;;;;;;;13.93;10.00;;;15.30;99.90;;;;;;5071440;28;20023;-72
2021/08/18 02:26:07;;;;;;;15.15;11.48;;;15.30;99.90;;;;;;5071501;28;20021;-73
2021/08/18 02:28:32;;;;;;;14.52;10.93;;;15.30;99.90;;;;;;5071358;28;20063;-75
2021/08/18 02:30:58;;;;;;;12.90;9.75;;;15.30;99.90;;;;;;5069787;28;20066;-75
2021/08/18 02:33:25;;;;;;;13.95;10.57;;;15.30;99.90;;;;;;5069942;28;20492;-72
2021/08/18 02:35:51;;;;;;;15.43;10.18;;;15.30;99.90;;;;;;5071515;28;20023;-73
2021/08/18 02:38:17;;;;;;;19.27;11.15;;;15.30;99.90;;;;;;5075197;28;20420;-72
2021/08/18 02:40:43;;;;;;;13.68;9.63;;;15.30;99.90;;;;;;5073633;28;20105;-74
2021/08/18 02:43:08;;;;;;;13.95;10.02;;;15.40;99.90;;;;;;5078773;28;20488;-72
2021/08/18 02:45:34;;;;;;;14.38;9.95;;;15.40;99.90;;;;;;5085228;28;20407;-74
2021/08/18 02:48:00;;;;;;;14.13;9.43;;;15.30;99.90;;;;;;5091660;28;20122;-72
2021/08/18 02:50:28;;;;;;;13.90;10.00;;;15.30;99.90;;;;;;5071025;28;20066;-73
2021/08/18 02:52:53;;;;;;;13.73;9.68;;;15.30;99.90;;;;;;5091975;28;20031;-74
2021/08/18 02:55:19;;;;;;;14.10;10.10;;;15.40;99.90;;;;;;5085426;28;20028;-73
2021/08/18 02:57:45;;;;;;;14.13;9.82;;;15.30;99.90;;;;;;5083463;28;20027;-74
2021/08/18 03:00:11;;;;;;;16.55;9.77;;;15.30;99.90;;;;;;5099932;28;20048;-72
2021/08/18 03:02:37;;;;;;;11.73;9.57;;;15.30;99.90;;;;;;5099469;28;20064;-72
2021/08/18 03:05:03;;;;;;;13.57;10.48;;;15.30;99.90;;;;;;5099937;28;20047;-72
2021/08/18 03:07:29;;;;;;;13.30;10.27;;;15.30;99.90;;;;;;5094577;28;20008;-72
2021/08/18 03:09:54;;;;;;;14.65;9.23;;;15.30;99.90;;;;;;5084426;28;20096;-72
2021/08/18 03:12:20;;;;;;;12.63;9.65;;;15.50;99.90;;;;;;5079799;28;20055;-71
2021/08/18 03:14:46;;;;;;;15.30;9.85;;;15.40;99.90;;;;;;5079662;28;20017;-71
2021/08/18 03:17:12;;;;;;;15.13;9.35;;;15.40;99.90;;;;;;5079284;28;20017;-71
2021/08/18 03:19:38;;;;;;;12.07;8.25;;;15.30;99.90;;;;;;5079790;28;20028;-71
2021/08/18 03:22:04;;;;;;;17.98;11.07;;;15.30;99.90;;;;;;5079668;28;20024;-71
2021/08/18 03:24:29;;;;;;;15.02;9.10;;;15.30;99.90;;;;;;5079336;28;20013;-71
2021/08/18 03:26:55;;;;;;;12.93;8.70;;;15.30;99.90;;;;;;5056754;28;20024;-73
2021/08/18 03:29:20;;;;;;;12.77;8.90;;;15.30;99.90;;;;;;5053667;28;20481;-72
2021/08/18 03:31:46;;;;;;;12.23;8.50;;;15.30;99.90;;;;;;5054920;28;20095;-72
2021/08/18 03:34:11;;;;;;;10.27;8.73;;;15.30;99.90;;;;;;5053842;28;20016;-72
2021/08/18 03:36:37;;;;;;;13.57;8.93;;;15.30;99.90;;;;;;5073650;28;20044;-73
2021/08/18 03:39:03;;;;;;;13.52;8.98;;;15.20;99.90;;;;;;5092257;28;20051;-72
2021/08/18 03:41:28;;;;;;;12.10;9.88;;;15.20;99.90;;;;;;5098677;28;20025;-71
2021/08/18 03:43:54;;;;;;;13.15;9.18;;;15.30;99.90;;;;;;5094091;28;20028;-71
2021/08/18 03:46:20;;;;;;;14.48;10.23;;;15.20;99.90;;;;;;5110680;28;20008;-71
2021/08/18 03:48:45;;;;;;;12.18;8.73;;;15.30;99.90;;;;;;5106335;28;20032;-72
2021/08/18 03:51:11;;;;;;;13.10;9.13;;;15.30;99.90;;;;;;5089749;28;20031;-71
2021/08/18 03:53:36;;;;;;;13.88;10.45;;;15.30;99.90;;;;;;5099083;28;20019;-71
2021/08/18 03:56:02;;;;;;;12.80;9.18;;;15.30;99.90;;;;;;5098472;28;20092;-71
2021/08/18 03:58:28;;;;;;;10.75;7.90;;;15.30;99.90;;;;;;5086134;28;20051;-73
2021/08/18 04:00:53;;;;;;;13.57;9.23;;;15.30;99.90;;;;;;5074741;28;20028;-73
2021/08/18 04:03:19;;;;;;;13.43;8.43;;;15.30;99.90;;;;;;5073461;28;20028;-72
2021/08/18 04:05:44;;;;;;;20.77;14.93;;;15.30;99.90;;;;;;5073279;28;20032;-72
2021/08/18 04:08:11;;;;;;;9.65;8.48;;;15.30;99.90;;;;;;5072027;28;20108;-73
2021/08/18 04:10:37;;;;;;;11.48;8.80;;;15.30;99.90;;;;;;5073114;28;20035;-72
2021/08/18 04:13:04;;;;;;;14.73;11.82;;;15.30;99.90;;;;;;5073014;28;20029;-72
2021/08/18 04:15:41;;;;;;;12.18;9.00;;;15.40;99.90;;;;;;5073212;28;20099;-72
2021/08/18 04:18:08;;;;;;;12.70;8.65;;;15.40;99.90;;;;;;5072776;28;20104;-73
2021/08/18 04:20:34;;;;;;;10.32;7.53;;;15.30;99.90;;;;;;5073401;28;20107;-73
2021/08/18 04:23:02;;;;;;;10.48;7.63;;;15.30;99.90;;;;;;5073068;28;20021;-74
2021/08/18 04:25:27;;;;;;;15.98;11.60;;;15.30;99.90;;;;;;5073748;28;20042;-74
2021/08/18 04:27:53;;;;;;;10.60;8.27;;;15.40;99.90;;;;;;5073765;28;20480;-74
2021/08/18 04:30:20;;;;;;;11.07;7.72;;;15.30;99.90;;;;;;5073341;28;20032;-72
2021/08/18 04:32:46;;;;;;;12.23;8.40;;;15.30;99.90;;;;;;5073291;28;20392;-72
2021/08/18 04:35:13;;;;;;;10.15;8.00;;;15.30;99.90;;;;;;5074150;28;20020;-76
2021/08/18 04:37:39;;;;;;;11.57;8.98;;;15.40;99.90;;;;;;5074397;28;20028;-72
2021/08/18 04:40:10;;;;;;;19.02;14.20;;;15.40;99.90;;;;;;5071853;28;20016;-72
2021/08/18 04:42:39;;;;;;;;;;;15.40;99.90;;;;;;5074144;28;20415;-72
2021/08/18 04:45:06;;;;;;;13.68;9.80;;;15.50;99.90;;;;;;5073784;28;19975;-72
2021/08/18 04:47:35;;;;;;;8.23;7.28;;;15.50;99.90;;;;;;5088630;28;20111;-75
2021/08/18 04:50:01;;;;;;;8.88;6.85;;;15.50;99.90;;;;;;5091346;28;20055;-72
2021/08/18 04:52:26;;;;;;;10.13;6.97;;;15.40;99.90;;;;;;5072864;28;20056;-73
2021/08/18 04:54:53;;;;;;;8.70;6.47;;;15.40;99.90;;;;;;5072822;28;20082;-73
2021/08/18 04:57:19;;;;;;;8.35;6.60;;;15.30;99.90;;;;;;5072769;28;20108;-71
2021/08/18 04:59:44;;;;;;;9.90;7.32;;;15.30;99.90;;;;;;5070340;28;20059;-74
2021/08/18 05:02:12;;;;;;;7.35;6.13;;;15.30;99.90;;;;;;5072673;28;20064;-74
2021/08/18 05:04:41;;;;;;;16.70;12.60;;;15.30;99.90;;;;;;5072694;28;20108;-73
2021/08/18 05:07:07;;;;;;;13.25;7.45;;;15.30;99.90;;;;;;5071568;28;20024;-74
2021/08/18 05:09:32;;;;;;;8.13;6.47;;;15.40;99.90;;;;;;5072384;28;20446;-74
2021/08/18 05:11:58;;;;;;;10.20;8.25;;;15.40;99.90;;;;;;5071249;28;20119;-75
2021/08/18 05:14:24;;;;;;;7.70;6.80;;;15.40;99.90;;;;;;5071565;28;20024;-74
2021/08/18 05:16:50;;;;;;;8.38;7.20;;;15.40;99.90;;;;;;5071176;28;20024;-73
2021/08/18 05:19:15;;;;;;;8.30;6.38;;;15.40;99.90;;;;;;5072593;28;20029;-75
2021/08/18 05:21:41;;;;;;;9.40;6.78;;;15.30;99.90;;;;;;5072070;28;20451;-73
2021/08/18 05:24:08;;;;;;;10.25;8.65;;;15.30;99.90;;;;;;5071020;28;20028;-73
2021/08/18 05:26:36;;;;;;;8.15;6.85;;;15.30;99.90;;;;;;5072125;28;20071;-73
2021/08/18 05:29:02;;;;;;;8.45;5.90;;;15.30;99.90;;;;;;5070997;28;20031;-72
2021/08/18 05:31:27;;;;;;;8.77;6.15;;;15.40;99.90;;;;;;5074985;28;20021;-73
2021/08/18 05:33:53;;;;;;;6.60;5.82;;;15.40;99.90;;;;;;5072582;28;20025;-72
2021/08/18 05:36:18;;;;;;;7.40;5.70;;;15.40;99.90;;;;;;5071103;28;20108;-73
2021/08/18 05:38:44;;;;;;;6.72;5.22;;;15.40;99.90;;;;;;5070909;28;20090;-73
2021/08/18 05:41:13;;;;;;;8.45;6.03;;;15.40;99.90;;;;;;5071995;28;20108;-73
2021/08/18 05:43:38;;;;;;;8.10;6.63;;;15.50;99.90;;;;;;5072265;28;20032;-72
2021/08/18 05:46:07;;;;;;;6.85;5.75;;;15.50;99.90;;;;;;5071949;28;20395;-73
2021/08/18 05:48:33;;;;;;;7.43;6.20;;;15.60;99.90;;;;;;5071752;28;20108;-73
2021/08/18 05:50:58;;;;;;;6.65;5.68;;;15.60;99.90;;;;;;5061891;28;20112;-73
2021/08/18 05:53:24;;;;;;;6.07;5.35;;;15.60;99.90;;;;;;5063670;28;20303;-73
2021/08/18 05:55:50;;;;;;;8.30;5.93;;;15.60;99.90;;;;;;5071752;28;20501;-74
2021/08/18 05:58:17;;;;;;;5.53;4.72;;;15.60;99.90;;;;;;5071563;28;20024;-73
2021/08/18 06:00:42;;;;;;;7.93;5.10;;;15.70;99.90;;;;;;5072413;28;20032;-73
2021/08/18 06:03:08;;;;;;;5.78;4.95;;;15.70;99.90;;;;;;5071713;28;20039;-73
2021/08/18 06:05:36;;;;;;;6.38;4.97;;;15.70;99.90;;;;;;5070498;28;20446;-73
2021/08/18 06:08:02;;;;;;;5.80;4.60;;;15.70;99.90;;;;;;5071165;28;20024;-75
2021/08/18 06:10:28;;;;;;;6.40;4.75;;;15.80;99.90;;;;;;5058936;28;20034;-74
2021/08/18 06:12:53;;;;;;;5.63;4.70;;;16.00;99.90;;;;;;5075493;28;20021;-73
2021/08/18 06:15:19;;;;;;;5.82;4.13;;;16.00;99.90;;;;;;5073992;28;20028;-73
2021/08/18 06:17:47;;;;;;;4.72;3.92;;;16.10;99.90;;;;;;5075122;28;20021;-72
2021/08/18 06:20:13;;;;;;;4.60;3.75;;;16.20;99.90;;;;;;5074971;28;20027;-74
2021/08/18 06:22:39;;;;;;;4.03;3.63;;;16.20;99.90;;;;;;5075195;28;20029;-73
2021/08/18 06:25:06;;;;;;;4.65;3.75;;;16.20;99.90;;;;;;5074818;28;20029;-74
2021/08/18 06:27:32;;;;;;;5.40;4.10;;;16.30;99.90;;;;;;5075038;28;20484;-73
2021/08/18 06:29:58;;;;;;;4.70;3.75;;;16.30;99.90;;;;;;5075304;28;20028;-73
2021/08/18 06:32:23;;;;;;;5.22;3.67;;;16.30;99.90;;;;;;5071632;28;20130;-75
2021/08/18 06:34:53;;;;;;;5.25;3.75;;;16.20;99.90;;;;;;5088307;28;20016;-73
2021/08/18 06:37:22;;;;;;;4.53;3.67;;;16.20;99.90;;;;;;5094819;28;20074;-72
2021/08/18 06:39:47;;;;;;;7.50;3.97;;;16.30;99.90;;;;;;5074760;28;20024;-72
2021/08/18 06:42:13;;;;;;;4.47;3.40;;;16.30;99.90;;;;;;5073793;28;20115;-73
2021/08/18 06:44:39;;;;;;;6.40;3.47;;;16.30;99.90;;;;;;5074795;28;20426;-73
2021/08/18 06:47:05;;;;;;;4.95;3.80;;;16.40;99.90;;;;;;5067097;28;20021;-73
2021/08/18 06:49:30;;;;;;;4.53;3.60;;;16.40;99.90;;;;;;5083020;28;20054;-74
2021/08/18 06:51:56;;;;;;;5.18;3.75;;;16.30;99.90;;;;;;5072262;28;20054;-72
2021/08/18 06:54:22;;;;;;;5.40;4.25;;;16.30;99.90;;;;;;5053351;28;20025;-72
2021/08/18 06:56:47;;;;;;;5.93;3.20;;;16.30;99.90;;;;;;5059977;28;20016;-72
2021/08/18 06:59:15;;;;;;;4.60;3.78;;;16.40;99.90;;;;;;5074484;28;20039;-73
2021/08/18 07:01:40;;;;;;;6.20;4.10;;;16.30;99.90;;;;;;5062390;28;20063;-72
2021/08/18 07:04:06;;;;;;;4.88;3.85;;;16.30;99.90;;;;;;5054560;28;20033;-73
2021/08/18 07:06:32;;;;;;;4.28;3.88;;;16.30;99.90;;;;;;5054107;28;20422;-73
2021/08/18 07:08:58;;;;;;;6.28;3.80;;;16.40;99.90;;;;;;5052913;28;20028;-72
2021/08/18 07:11:24;;;;;;;6.10;4.40;;;16.50;99.90;;;;;;5052765;28;20021;-72
2021/08/18 07:13:50;;;;;;;4.85;3.38;;;16.60;99.90;;;;;;5054126;28;20027;-73
2021/08/18 07:16:15;;;;;;;8.50;4.20;;;16.70;99.90;;;;;;5053970;28;20028;-73
2021/08/18 07:18:41;;;;;;;5.53;3.63;;;16.80;99.90;;;;;;5052591;28;20012;-72
2021/08/18 07:21:06;;;;;;;7.40;3.55;;;16.80;99.90;;;;;;5053548;28;20047;-72
2021/08/18 07:23:32;;;;;;;3.72;2.83;;;16.80;99.90;;;;;;5053203;28;20033;-72
2021/08/18 07:25:58;;;;;;;5.80;4.18;;;16.80;99.90;;;;;;5053613;28;20566;-73
2021/08/18 07:28:23;;;;;;;4.35;3.47;;;16.90;99.90;;;;;;5053804;28;20043;-72
2021/08/18 07:30:49;;;;;;;3.80;3.15;;;16.90;99.90;;;;;;5053834;28;20024;-74
2021/08/18 07:33:15;;;;;;;3.72;3.08;;;17.00;99.90;;;;;;5053869;28;20025;-73
2021/08/18 07:35:40;;;;;;;5.47;3.08;;;17.10;99.90;;;;;;5086793;28;20043;-72
2021/08/18 07:38:06;;;;;;;4.25;3.03;;;17.10;99.90;;;;;;5092236;28;20506;-73
2021/08/18 07:40:31;;;;;;;2.90;2.60;;;17.20;99.90;;;;;;5092768;28;20496;-73
2021/08/18 07:42:59;;;;;;;3.65;2.70;;;17.40;99.90;;;;;;5092353;28;20024;-72
2021/08/18 07:45:25;;;;;;;3.30;2.92;;;17.40;99.90;;;;;;5092369;28;20024;-73
2021/08/18 07:47:50;;;;;;;6.10;3.55;;;17.60;99.90;;;;;;5093950;28;20460;-73
2021/08/18 07:50:16;;;;;;;3.63;2.40;;;17.90;99.90;;;;;;5087121;28;20104;-73
2021/08/18 07:52:42;;;;;;;2.92;1.95;;;18.30;99.90;;;;;;5053252;28;20469;-71
2021/08/18 07:55:08;;;;;;;1.67;1.55;;;18.60;99.90;;;;;;5051870;28;20384;-73
2021/08/18 07:57:34;;;;;;;1.50;1.40;;;18.50;99.90;;;;;;5051881;28;20040;-73
2021/08/18 08:00:04;;;;;;;1.90;1.50;;;18.70;99.90;;;;;;5051743;28;20106;-73
2021/08/18 08:02:29;;;;;;;2.75;1.83;;;18.70;99.90;;;;;;5052909;28;20430;-72
2021/08/18 08:04:55;;;;;;;1.85;1.38;;;18.70;99.90;;;;;;5053109;28;20103;-73
2021/08/18 08:07:21;;;;;;;1.65;1.30;;;18.80;99.90;;;;;;5051861;28;20342;-73
2021/08/18 08:09:46;;;;;;;1.27;1.10;;;18.90;99.90;;;;;;5053484;28;20029;-73
2021/08/18 08:12:11;;;;;;;1.40;1.10;;;18.90;99.90;;;;;;5051417;28;20078;-72
2021/08/18 08:14:37;;;;;;;1.55;1.30;;;18.90;99.90;;;;;;5053193;28;20067;-72
2021/08/18 08:17:03;;;;;;;1.50;1.10;;;19.00;99.90;;;;;;5053040;28;20021;-74
2021/08/18 08:19:28;;;;;;;1.40;1.17;;;18.80;99.90;;;;;;5052875;28;20021;-73
2021/08/18 08:21:54;;;;;;;1.10;0.88;;;18.60;99.90;;;;;;5052637;28;20104;-72
2021/08/18 08:24:19;;;;;;;4.47;0.88;;;18.40;99.90;;;;;;5051403;28;20025;-72
2021/08/18 08:26:45;;;;;;;1.08;0.95;;;18.30;99.90;;;;;;5052611;28;20021;-73
2021/08/18 08:29:10;;;;;;;1.40;1.10;;;18.30;99.90;;;;;;5052600;28;20024;-73
2021/08/18 08:31:36;;;;;;;1.73;0.82;;;18.00;99.90;;;;;;5051352;28;20033;-73
2021/08/18 08:34:02;;;;;;;1.20;1.08;;;18.00;99.90;;;;;;5052431;28;20024;-72
2021/08/18 08:36:28;;;;;;;4.57;0.93;;;18.10;99.90;;;;;;5050935;28;20158;-72
2021/08/18 08:38:53;;;;;;;1.60;0.80;;;18.20;99.90;;;;;;5052514;28;20491;-72
2021/08/18 08:41:20;;;;;;;0.93;0.77;;;18.30;99.90;;;;;;5051039;28;20528;-72
2021/08/18 08:43:45;;;;;;;4.20;1.08;;;18.30;99.90;;;;;;5052247;28;20048;-72
2021/08/18 08:46:11;;;;;;;2.33;1.23;;;18.40;99.90;;;;;;5052374;28;20492;-73
2021/08/18 08:48:39;;;;;;;0.80;0.70;;;18.40;99.90;;;;;;5052011;28;20484;-73
2021/08/18 08:51:06;;;;;;;4.07;1.00;;;18.40;99.90;;;;;;5051830;28;20109;-73
2021/08/18 08:53:32;;;;;;;2.35;0.75;;;18.30;99.90;;;;;;5052240;28;20028;-72
2021/08/18 08:55:58;;;;;;;0.60;0.57;;;18.30;99.90;;;;;;5052198;28;20052;-75
2021/08/18 08:58:24;;;;;;;0.63;0.60;;;18.20;99.90;;;;;;5051937;28;20057;-72
2021/08/18 09:00:51;;;;;;;0.98;0.88;;;18.20;99.90;;;;;;5051980;28;20029;-72
2021/08/18 09:03:23;;;;;;;1.05;0.60;;;18.20;99.90;;;;;;5051999;28;20055;-73
2021/08/18 09:05:49;;;;;;;;;;;18.30;99.90;;;;;;5052338;28;20021;-73
2021/08/18 09:08:17;;;;;;;0.85;0.57;;;18.30;99.90;;;;;;5052119;28;19905;-73
2021/08/18 09:11:08;;;;;;;2.58;0.65;;;18.30;99.90;;;;;;5051863;28;20108;-73
2021/08/18 09:13:46;;;;;;;1.20;0.40;;;18.30;99.90;;;;;;5050570;28;20032;-72
2021/08/18 09:16:12;;;;;;;0.52;0.52;;;18.30;99.90;;;;;;5051653;28;20027;-74
2021/08/18 09:18:40;;;;;;;1.27;0.50;;;18.30;99.90;;;;;;5051874;28;20029;-74
2021/08/18 09:21:29;;;;;;;0.63;0.52;;;18.30;99.90;;;;;;5050338;28;20044;-72
2021/08/18 09:24:16;;;;;;;0.50;0.40;;;18.30;99.90;;;;;;5051778;28;20025;-72
2021/08/18 09:26:51;;;;;;;0.55;0.30;;;18.30;99.90;;;;;;5051458;28;20017;-73
2021/08/18 09:29:35;;;;;;;0.57;0.40;;;18.50;99.90;;;;;;5050481;28;20362;-72
2021/08/18 09:32:21;;;;;;;0.60;0.40;;;18.60;99.90;;;;;;5050220;28;20021;-73
2021/08/18 09:34:55;;;;;;;0.60;0.40;;;18.60;99.90;;;;;;5053012;28;20025;-73
2021/08/18 09:37:21;;;;;;;1.00;0.30;;;18.40;99.90;;;;;;5086462;28;20135;-73
2021/08/18 09:39:46;;;;;;;0.20;0.20;;;18.30;99.90;;;;;;5092176;28;20482;-71
2021/08/18 09:42:29;;;;;;;0.30;0.30;;;18.30;99.90;;;;;;5091728;28;20556;-71
2021/08/18 09:45:08;;;;;;;0.30;0.30;;;18.30;99.90;;;;;;5091207;28;20114;-71
2021/08/18 09:47:34;;;;;;;0.28;0.28;;;18.30;99.90;;;;;;5095866;28;20022;-71
2021/08/18 09:50:00;;;;;;;2.08;0.25;;;18.50;99.90;;;;;;5093827;28;20107;-73
2021/08/18 09:52:26;;;;;;;0.30;0.30;;;18.70;99.90;;;;;;5055284;28;20027;-73
2021/08/18 09:54:51;;;;;;;0.75;0.75;;;19.00;99.90;;;;;;5054275;28;20036;-73
2021/08/18 09:57:30;;;;;;;0.38;0.38;;;19.40;99.90;;;;;;5055487;28;20013;-74
2021/08/18 09:59:56;;;;;;;0.40;0.30;;;19.70;99.90;;;;;;5055943;28;20108;-73
2021/08/18 10:02:23;;;;;;;0.22;0.22;;;19.80;99.90;;;;;;5055400;28;20025;-72
2021/08/18 10:04:49;;;;;;;0.30;0.30;;;20.00;99.90;;;;;;5055324;28;20028;-73
2021/08/18 10:07:15;;;;;;;0.47;0.30;;;20.30;99.90;;;;;;5055101;28;20047;-72
2021/08/18 10:09:41;;;;;;;0.30;0.28;;;20.20;99.90;;;;;;5053989;28;20029;-72
2021/08/18 10:12:08;;;;;;;0.63;0.40;;;20.40;99.90;;;;;;5053701;28;20086;-71
2021/08/18 10:14:34;;;;;;;0.22;0.22;;;20.80;99.90;;;;;;5055429;28;20025;-72
2021/08/18 10:16:59;;;;;;;0.30;0.30;;;21.00;99.90;;;;;;5053634;28;20021;-71
2021/08/18 10:19:25;;;;;;;0.40;0.40;;;21.60;99.90;;;;;;5054917;28;20021;-72
2021/08/18 10:21:59;;;;;;;0.35;0.35;;;21.20;99.90;;;;;;5055057;28;20059;-73
2021/08/18 10:24:38;;;;;;;1.10;0.40;;;20.70;99.90;;;;;;5055114;28;20031;-72
2021/08/18 10:27:05;;;;;;;0.82;0.63;;;20.30;99.90;;;;;;5054940;28;20570;-72
2021/08/18 10:29:36;;;;;;;0.50;0.50;;;19.90;99.90;;;;;;5053512;28;20100;-72
2021/08/18 10:32:06;;;;;;;0.60;0.60;;;19.50;99.90;;;;;;5054849;28;20051;-72
2021/08/18 10:34:34;;;;;;;1.00;0.60;;;19.60;99.90;;;;;;5053438;28;20027;-72
2021/08/18 10:37:03;;;;;;;2.13;0.52;;;19.80;99.90;;;;;;5054709;28;20361;-72
2021/08/18 10:39:36;;;;;;;0.40;0.40;;;19.80;99.90;;;;;;5054713;28;20039;-73
2021/08/18 10:42:04;;;;;;;0.50;0.50;;;19.60;99.90;;;;;;5054784;28;20040;-72
2021/08/18 10:44:54;;;;;;;0.60;0.57;;;19.30;99.90;;;;;;5053209;28;20025;-73
2021/08/18 10:47:24;;;;;;;0.80;0.73;;;19.20;99.90;;;;;;5054495;28;20025;-72
2021/08/18 10:49:52;;;;;;;1.30;0.70;;;19.10;99.90;;;;;;5054513;28;20054;-73
2021/08/18 10:52:30;;;;;;;1.10;1.00;;;19.20;99.90;;;;;;5053066;28;20022;-72
2021/08/18 10:55:08;;;;;;;1.40;1.05;;;19.30;99.90;;;;;;5054362;28;20027;-72
2021/08/18 10:57:40;;;;;;;0.68;0.68;;;19.60;99.90;;;;;;5053184;28;20029;-72
2021/08/18 11:00:20;;;;;;;0.73;0.70;;;19.80;99.90;;;;;;5052902;28;20392;-72
2021/08/18 11:02:59;;;;;;;0.70;0.70;;;19.70;99.90;;;;;;5054041;28;20025;-73
2021/08/18 11:05:30;;;;;;;0.95;0.55;;;19.60;99.90;;;;;;5052958;28;20239;-73
2021/08/18 11:08:14;;;;;;;1.40;0.60;;;19.50;99.90;;;;;;5054222;28;20021;-73
2021/08/18 11:10:52;;;;;;;7.45;1.00;;;19.20;99.90;;;;;;5052694;28;20075;-73
2021/08/18 11:13:34;;;;;;;1.10;1.00;;;19.30;99.90;;;;;;5052758;28;20029;-72
2021/08/18 11:16:11;;;;;;;1.48;1.02;;;19.20;99.90;;;;;;5053983;28;20025;-72
2021/08/18 11:18:44;;;;;;;1.27;1.05;;;19.00;99.90;;;;;;5052671;28;20614;-72
2021/08/18 11:21:22;;;;;;;1.23;1.00;;;19.00;99.90;;;;;;5053844;28;20032;-72
2021/08/18 11:23:53;;;;;;;1.50;1.30;;;18.90;99.90;;;;;;5053936;28;20029;-73
2021/08/18 11:26:22;;;;;;;1.42;1.00;;;19.00;99.90;;;;;;5053658;28;20029;-72
2021/08/18 11:28:56;;;;;;;0.90;0.90;;;19.00;99.90;;;;;;5053719;28;20496;-72
2021/08/18 11:31:30;;;;;;;1.23;0.90;;;18.90;99.90;;;;;;5053537;28;20029;-73
2021/08/18 11:33:56;;;;;;;1.00;0.90;;;19.20;99.90;;;;;;5053807;28;20380;-74
2021/08/18 11:36:21;;;;;;;2.47;1.10;;;19.20;99.90;;;;;;5053552;28;20021;-72
2021/08/18 11:38:58;;;;;;;1.67;0.90;;;19.10;99.90;;;;;;5073191;28;20031;-72
2021/08/18 11:41:35;;;;;;;1.67;1.00;;;19.20;99.90;;;;;;5073740;28;20025;-72
2021/08/18 11:44:00;;;;;;;1.10;0.80;;;19.60;99.90;;;;;;5073600;28;20091;-73
2021/08/18 11:46:26;;;;;;;1.75;1.15;;;20.00;99.90;;;;;;5073268;28;20038;-73
2021/08/18 11:48:52;;;;;;;1.02;0.93;;;20.60;99.90;;;;;;5072323;28;20460;-72
2021/08/18 11:51:20;;;;;;;0.93;0.90;;;21.30;99.90;;;;;;5061342;28;20029;-72
2021/08/18 11:53:53;;;;;;;2.60;0.75;;;21.80;99.90;;;;;;5053239;28;20024;-73
2021/08/18 11:56:24;;;;;;;1.45;0.98;;;22.10;99.90;;;;;;5053130;28;20472;-73
2021/08/18 11:58:55;;;;;;;2.88;0.90;;;22.00;99.90;;;;;;5051798;28;20025;-72
2021/08/18 12:01:21;;;;;;;0.77;0.77;;;21.60;99.90;;;;;;5053152;28;20021;-73
2021/08/18 12:03:47;;;;;;;3.33;0.90;;;21.10;99.90;;;;;;5053300;28;20029;-73
2021/08/18 12:06:13;;;;;;;0.85;0.80;;;20.90;99.90;;;;;;5053008;28;20037;-73
2021/08/18 12:08:41;;;;;;;3.28;0.98;;;20.90;99.90;;;;;;5051412;28;20374;-73
2021/08/18 12:11:08;;;;;;;3.13;0.80;;;20.90;99.90;;;;;;5051586;28;20029;-72
2021/08/18 12:13:46;;;;;;;2.33;1.48;;;21.00;99.90;;;;;;5052931;28;20128;-73
2021/08/18 12:16:30;;;;;;;1.05;0.75;;;21.10;99.90;;;;;;5052957;28;20065;-73
2021/08/18 12:19:18;;;;;;;1.98;0.80;;;20.90;99.90;;;;;;5053097;28;20021;-74
2021/08/18 12:21:44;;;;;;;0.88;0.88;;;20.60;99.90;;;;;;5052843;28;20439;-74
2021/08/18 12:24:13;;;;;;;1.00;0.70;;;20.30;99.90;;;;;;5052788;28;20029;-73
2021/08/18 12:26:42;;;;;;;1.10;0.70;;;20.20;99.90;;;;;;5052532;28;20109;-73
2021/08/18 12:29:09;;;;;;;0.80;0.75;;;20.00;99.90;;;;;;5052507;28;20415;-72
2021/08/18 12:31:54;;;;;;;0.60;0.60;;;20.00;99.90;;;;;;5052407;28;20067;-72
2021/08/18 12:34:32;;;;;;;1.08;0.80;;;20.10;99.90;;;;;;5052539;28;20130;-73
2021/08/18 12:37:06;;;;;;;0.57;0.43;;;20.40;99.90;;;;;;5051046;28;20017;-78
2021/08/18 12:39:57;;;;;;;0.57;0.52;;;20.80;99.90;;;;;;5052472;28;20527;-72
2021/08/18 12:42:25;;;;;;;1.83;0.37;;;21.30;99.90;;;;;;5051900;28;20107;-73
2021/08/18 12:45:17;;;;;;;0.40;0.40;;;21.70;99.90;;;;;;5050765;28;20025;-72